sensor_id;sensor_type;location;lat;lon;timestamp;P1;durP1;ratioP1;P2;durP2;ratioP2
8887;SDS011;4480;52.370;9.748;2023-02-03T00:00:33;25.42;;;18.48;;
8887;SDS011;4480;52.370;9.748;2023-02-03T00:03:01;24.15;;;17.48;;
8887;SDS011;4480;52.370;9.748;2023-02-03T00:05:28;26.38;;;19.63;;
8887;SDS011;4480;52.370;9.748;2023-02-03T00:07:56;25.90;;;19.08;;
8887;SDS011;4480;52.370;9.748;2023-02-03T00:10:23;25.08;;;19.50;;
8887;SDS011;4480;52.370;9.748;2023-02-03T00:12:50;24.42;;;18.38;;
8887;SDS011;4480;52.370;9.748;2023-02-03T00:15:18;25.00;;;19.17;;
8887;SDS011;4480;52.370;9.748;2023-02-03T00:17:47;29.48;;;20.33;;
8887;SDS011;4480;52.370;9.748;2023-02-03T00:20:15;27.58;;;18.77;;
8887;SDS011;4480;52.370;9.748;2023-02-03T00:22:42;23.88;;;19.17;;
8887;SDS011;4480;52.370;9.748;2023-02-03T00:25:09;24.92;;;19.05;;
8887;SDS011;4480;52.370;9.748;2023-02-03T00:27:36;26.45;;;19.70;;
8887;SDS011;4480;52.370;9.748;2023-02-03T00:30:03;24.70;;;18.40;;
8887;SDS011;4480;52.370;9.748;2023-02-03T00:32:30;26.35;;;19.38;;
8887;SDS011;4480;52.370;9.748;2023-02-03T00:34:57;25.13;;;18.67;;
8887;SDS011;4480;52.370;9.748;2023-02-03T00:37:25;26.17;;;19.88;;
8887;SDS011;4480;52.370;9.748;2023-02-03T00:39:52;23.40;;;17.80;;
8887;SDS011;4480;52.370;9.748;2023-02-03T00:42:19;24.63;;;18.73;;
8887;SDS011;4480;52.370;9.748;2023-02-03T00:44:45;24.85;;;18.25;;
8887;SDS011;4480;52.370;9.748;2023-02-03T00:47:12;22.05;;;18.17;;
8887;SDS011;4480;52.370;9.748;2023-02-03T00:49:39;21.77;;;18.50;;
8887;SDS011;4480;52.370;9.748;2023-02-03T00:52:06;22.23;;;17.90;;
8887;SDS011;4480;52.370;9.748;2023-02-03T00:54:34;25.60;;;18.70;;
8887;SDS011;4480;52.370;9.748;2023-02-03T00:57:01;23.88;;;17.98;;
8887;SDS011;4480;52.370;9.748;2023-02-03T00:59:27;23.63;;;18.00;;
8887;SDS011;4480;52.370;9.748;2023-02-03T01:01:54;21.83;;;17.50;;
8887;SDS011;4480;52.370;9.748;2023-02-03T01:04:21;23.00;;;18.43;;
8887;SDS011;4480;52.370;9.748;2023-02-03T01:06:48;23.60;;;18.95;;
8887;SDS011;4480;52.370;9.748;2023-02-03T01:09:14;26.80;;;19.17;;
8887;SDS011;4480;52.370;9.748;2023-02-03T01:11:42;25.23;;;18.88;;
8887;SDS011;4480;52.370;9.748;2023-02-03T01:14:09;20.80;;;17.40;;
8887;SDS011;4480;52.370;9.748;2023-02-03T01:16:36;21.50;;;17.90;;
8887;SDS011;4480;52.370;9.748;2023-02-03T01:19:03;20.40;;;17.60;;
8887;SDS011;4480;52.370;9.748;2023-02-03T01:21:31;21.13;;;16.98;;
8887;SDS011;4480;52.370;9.748;2023-02-03T01:23:58;21.00;;;16.67;;
8887;SDS011;4480;52.370;9.748;2023-02-03T01:26:25;19.30;;;15.90;;
8887;SDS011;4480;52.370;9.748;2023-02-03T01:28:54;25.15;;;17.65;;
8887;SDS011;4480;52.370;9.748;2023-02-03T01:31:22;20.23;;;17.05;;
8887;SDS011;4480;52.370;9.748;2023-02-03T01:33:50;19.30;;;15.65;;
8887;SDS011;4480;52.370;9.748;2023-02-03T01:36:18;20.60;;;15.30;;
8887;SDS011;4480;52.370;9.748;2023-02-03T01:38:46;19.70;;;16.20;;
8887;SDS011;4480;52.370;9.748;2023-02-03T01:41:14;22.23;;;16.58;;
8887;SDS011;4480;52.370;9.748;2023-02-03T01:43:43;21.30;;;16.77;;
8887;SDS011;4480;52.370;9.748;2023-02-03T01:46:21;22.65;;;16.42;;
8887;SDS011;4480;52.370;9.748;2023-02-03T01:48:53;18.42;;;15.40;;
8887;SDS011;4480;52.370;9.748;2023-02-03T01:51:21;21.73;;;16.25;;
8887;SDS011;4480;52.370;9.748;2023-02-03T01:53:49;23.40;;;16.40;;
8887;SDS011;4480;52.370;9.748;2023-02-03T01:56:18;21.50;;;15.80;;
8887;SDS011;4480;52.370;9.748;2023-02-03T01:58:46;23.33;;;16.30;;
8887;SDS011;4480;52.370;9.748;2023-02-03T02:01:14;22.20;;;15.85;;
8887;SDS011;4480;52.370;9.748;2023-02-03T02:03:44;17.30;;;14.90;;
8887;SDS011;4480;52.370;9.748;2023-02-03T02:06:15;19.60;;;15.30;;
8887;SDS011;4480;52.370;9.748;2023-02-03T02:08:43;19.10;;;14.50;;
8887;SDS011;4480;52.370;9.748;2023-02-03T02:11:12;16.08;;;14.07;;
8887;SDS011;4480;52.370;9.748;2023-02-03T02:13:40;18.40;;;14.47;;
8887;SDS011;4480;52.370;9.748;2023-02-03T02:16:11;18.37;;;13.83;;
8887;SDS011;4480;52.370;9.748;2023-02-03T02:18:46;15.98;;;12.70;;
8887;SDS011;4480;52.370;9.748;2023-02-03T02:21:35;16.50;;;13.15;;
8887;SDS011;4480;52.370;9.748;2023-02-03T02:24:23;16.83;;;12.88;;
8887;SDS011;4480;52.370;9.748;2023-02-03T02:27:17;17.33;;;13.27;;
8887;SDS011;4480;52.370;9.748;2023-02-03T02:30:09;15.45;;;12.52;;
8887;SDS011;4480;52.370;9.748;2023-02-03T02:33:00;14.90;;;11.40;;
8887;SDS011;4480;52.370;9.748;2023-02-03T02:35:43;14.83;;;11.20;;
8887;SDS011;4480;52.370;9.748;2023-02-03T02:38:18;16.10;;;10.73;;
8887;SDS011;4480;52.370;9.748;2023-02-03T02:40:51;12.77;;;10.32;;
8887;SDS011;4480;52.370;9.748;2023-02-03T02:43:25;13.82;;;10.40;;
8887;SDS011;4480;52.370;9.748;2023-02-03T02:45:59;14.10;;;10.80;;
8887;SDS011;4480;52.370;9.748;2023-02-03T02:48:30;12.05;;;10.63;;
8887;SDS011;4480;52.370;9.748;2023-02-03T02:51:01;14.65;;;10.70;;
8887;SDS011;4480;52.370;9.748;2023-02-03T02:53:31;13.27;;;9.85;;
8887;SDS011;4480;52.370;9.748;2023-02-03T02:56:01;15.63;;;11.30;;
8887;SDS011;4480;52.370;9.748;2023-02-03T02:58:30;13.55;;;10.10;;
8887;SDS011;4480;52.370;9.748;2023-02-03T03:00:59;10.85;;;9.68;;
8887;SDS011;4480;52.370;9.748;2023-02-03T03:03:28;11.95;;;10.65;;
8887;SDS011;4480;52.370;9.748;2023-02-03T03:05:56;14.43;;;10.55;;
8887;SDS011;4480;52.370;9.748;2023-02-03T03:08:27;11.40;;;9.80;;
8887;SDS011;4480;52.370;9.748;2023-02-03T03:10:56;14.95;;;10.30;;
8887;SDS011;4480;52.370;9.748;2023-02-03T03:13:26;12.45;;;10.48;;
8887;SDS011;4480;52.370;9.748;2023-02-03T03:15:57;15.55;;;10.20;;
8887;SDS011;4480;52.370;9.748;2023-02-03T03:18:27;12.83;;;9.80;;
8887;SDS011;4480;52.370;9.748;2023-02-03T03:21:00;11.93;;;10.00;;
8887;SDS011;4480;52.370;9.748;2023-02-03T03:23:31;12.27;;;10.37;;
8887;SDS011;4480;52.370;9.748;2023-02-03T03:25:59;11.02;;;9.80;;
8887;SDS011;4480;52.370;9.748;2023-02-03T03:28:39;10.48;;;9.25;;
8887;SDS011;4480;52.370;9.748;2023-02-03T03:31:10;11.88;;;9.35;;
8887;SDS011;4480;52.370;9.748;2023-02-03T03:33:38;11.77;;;9.90;;
8887;SDS011;4480;52.370;9.748;2023-02-03T03:36:08;14.15;;;9.63;;
8887;SDS011;4480;52.370;9.748;2023-02-03T03:38:43;12.68;;;9.10;;
8887;SDS011;4480;52.370;9.748;2023-02-03T03:41:18;10.57;;;9.18;;
8887;SDS011;4480;52.370;9.748;2023-02-03T03:43:49;10.35;;;9.32;;
8887;SDS011;4480;52.370;9.748;2023-02-03T03:46:19;13.53;;;9.57;;
8887;SDS011;4480;52.370;9.748;2023-02-03T03:48:53;11.68;;;9.68;;
8887;SDS011;4480;52.370;9.748;2023-02-03T03:51:23;12.20;;;8.50;;
8887;SDS011;4480;52.370;9.748;2023-02-03T03:53:53;12.57;;;8.57;;
8887;SDS011;4480;52.370;9.748;2023-02-03T03:56:23;10.97;;;8.60;;
8887;SDS011;4480;52.370;9.748;2023-02-03T03:58:53;11.20;;;8.77;;
8887;SDS011;4480;52.370;9.748;2023-02-03T04:01:22;11.40;;;8.43;;
8887;SDS011;4480;52.370;9.748;2023-02-03T04:03:53;11.68;;;8.23;;
8887;SDS011;4480;52.370;9.748;2023-02-03T04:06:23;11.07;;;8.60;;
8887;SDS011;4480;52.370;9.748;2023-02-03T04:11:07;11.65;;;8.80;;
8887;SDS011;4480;52.370;9.748;2023-02-03T04:13:34;16.75;;;8.05;;
8887;SDS011;4480;52.370;9.748;2023-02-03T04:16:01;9.85;;;7.47;;
8887;SDS011;4480;52.370;9.748;2023-02-03T04:18:27;13.10;;;8.90;;
8887;SDS011;4480;52.370;9.748;2023-02-03T04:20:57;9.70;;;7.95;;
8887;SDS011;4480;52.370;9.748;2023-02-03T04:23:24;10.02;;;7.90;;
8887;SDS011;4480;52.370;9.748;2023-02-03T04:25:51;11.23;;;8.50;;
8887;SDS011;4480;52.370;9.748;2023-02-03T04:28:19;13.55;;;8.70;;
8887;SDS011;4480;52.370;9.748;2023-02-03T04:30:46;11.55;;;8.50;;
8887;SDS011;4480;52.370;9.748;2023-02-03T04:33:12;10.40;;;8.32;;
8887;SDS011;4480;52.370;9.748;2023-02-03T04:35:39;11.82;;;8.70;;
8887;SDS011;4480;52.370;9.748;2023-02-03T04:38:06;11.50;;;8.50;;
8887;SDS011;4480;52.370;9.748;2023-02-03T04:40:32;14.20;;;8.30;;
8887;SDS011;4480;52.370;9.748;2023-02-03T04:43:04;13.32;;;8.90;;
8887;SDS011;4480;52.370;9.748;2023-02-03T04:45:33;10.05;;;8.43;;
8887;SDS011;4480;52.370;9.748;2023-02-03T04:47:59;9.57;;;8.30;;
8887;SDS011;4480;52.370;9.748;2023-02-03T04:50:28;11.82;;;8.55;;
8887;SDS011;4480;52.370;9.748;2023-02-03T04:52:55;12.80;;;8.82;;
8887;SDS011;4480;52.370;9.748;2023-02-03T04:55:23;11.18;;;8.38;;
8887;SDS011;4480;52.370;9.748;2023-02-03T04:57:53;11.15;;;7.68;;
8887;SDS011;4480;52.370;9.748;2023-02-03T05:00:20;10.73;;;7.90;;
8887;SDS011;4480;52.370;9.748;2023-02-03T05:02:48;10.35;;;7.80;;
8887;SDS011;4480;52.370;9.748;2023-02-03T05:05:15;9.10;;;7.32;;
8887;SDS011;4480;52.370;9.748;2023-02-03T05:07:42;10.57;;;7.03;;
8887;SDS011;4480;52.370;9.748;2023-02-03T05:10:09;11.10;;;7.22;;
8887;SDS011;4480;52.370;9.748;2023-02-03T05:12:36;9.45;;;7.47;;
8887;SDS011;4480;52.370;9.748;2023-02-03T05:15:03;10.57;;;7.57;;
8887;SDS011;4480;52.370;9.748;2023-02-03T05:17:30;9.73;;;6.80;;
8887;SDS011;4480;52.370;9.748;2023-02-03T05:20:04;9.50;;;7.63;;
8887;SDS011;4480;52.370;9.748;2023-02-03T05:22:32;12.18;;;7.60;;
8887;SDS011;4480;52.370;9.748;2023-02-03T05:24:59;10.98;;;7.30;;
8887;SDS011;4480;52.370;9.748;2023-02-03T05:27:26;9.65;;;6.35;;
8887;SDS011;4480;52.370;9.748;2023-02-03T05:29:53;8.13;;;6.70;;
8887;SDS011;4480;52.370;9.748;2023-02-03T05:32:20;9.25;;;6.50;;
8887;SDS011;4480;52.370;9.748;2023-02-03T05:34:46;10.70;;;6.80;;
8887;SDS011;4480;52.370;9.748;2023-02-03T05:37:15;10.07;;;6.80;;
8887;SDS011;4480;52.370;9.748;2023-02-03T05:39:42;9.38;;;6.70;;
8887;SDS011;4480;52.370;9.748;2023-02-03T05:42:09;9.38;;;6.65;;
8887;SDS011;4480;52.370;9.748;2023-02-03T05:44:34;9.30;;;6.60;;
8887;SDS011;4480;52.370;9.748;2023-02-03T05:47:01;7.47;;;5.75;;
8887;SDS011;4480;52.370;9.748;2023-02-03T05:49:28;10.37;;;7.10;;
8887;SDS011;4480;52.370;9.748;2023-02-03T05:51:55;8.40;;;6.45;;
8887;SDS011;4480;52.370;9.748;2023-02-03T05:54:23;8.57;;;6.60;;
8887;SDS011;4480;52.370;9.748;2023-02-03T05:56:50;9.68;;;7.20;;
8887;SDS011;4480;52.370;9.748;2023-02-03T05:59:17;12.05;;;7.00;;
8887;SDS011;4480;52.370;9.748;2023-02-03T06:01:44;9.80;;;7.30;;
8887;SDS011;4480;52.370;9.748;2023-02-03T06:04:10;10.32;;;6.60;;
8887;SDS011;4480;52.370;9.748;2023-02-03T06:06:37;11.27;;;6.78;;
8887;SDS011;4480;52.370;9.748;2023-02-03T06:09:05;10.60;;;7.10;;
8887;SDS011;4480;52.370;9.748;2023-02-03T06:11:34;9.35;;;6.82;;
8887;SDS011;4480;52.370;9.748;2023-02-03T06:14:02;9.93;;;7.00;;
8887;SDS011;4480;52.370;9.748;2023-02-03T06:16:29;9.80;;;6.50;;
8887;SDS011;4480;52.370;9.748;2023-02-03T06:18:56;8.52;;;6.50;;
8887;SDS011;4480;52.370;9.748;2023-02-03T06:21:24;10.60;;;6.80;;
8887;SDS011;4480;52.370;9.748;2023-02-03T06:23:51;11.85;;;6.63;;
8887;SDS011;4480;52.370;9.748;2023-02-03T06:26:18;13.90;;;7.00;;
8887;SDS011;4480;52.370;9.748;2023-02-03T06:28:46;11.30;;;7.97;;
8887;SDS011;4480;52.370;9.748;2023-02-03T06:31:13;10.73;;;7.93;;
8887;SDS011;4480;52.370;9.748;2023-02-03T06:33:40;11.68;;;8.27;;
8887;SDS011;4480;52.370;9.748;2023-02-03T06:36:07;9.10;;;7.50;;
8887;SDS011;4480;52.370;9.748;2023-02-03T06:38:34;13.65;;;7.15;;
8887;SDS011;4480;52.370;9.748;2023-02-03T06:41:01;11.52;;;7.50;;
8887;SDS011;4480;52.370;9.748;2023-02-03T06:43:28;12.52;;;8.38;;
8887;SDS011;4480;52.370;9.748;2023-02-03T06:45:56;11.03;;;8.20;;
8887;SDS011;4480;52.370;9.748;2023-02-03T06:48:22;11.75;;;7.97;;
8887;SDS011;4480;52.370;9.748;2023-02-03T06:50:49;10.52;;;7.80;;
8887;SDS011;4480;52.370;9.748;2023-02-03T06:53:16;13.35;;;8.30;;
8887;SDS011;4480;52.370;9.748;2023-02-03T06:55:43;11.93;;;8.55;;
8887;SDS011;4480;52.370;9.748;2023-02-03T06:58:11;13.68;;;8.52;;
8887;SDS011;4480;52.370;9.748;2023-02-03T07:00:38;13.15;;;8.90;;
8887;SDS011;4480;52.370;9.748;2023-02-03T07:03:06;11.55;;;8.23;;
8887;SDS011;4480;52.370;9.748;2023-02-03T07:05:33;10.63;;;7.90;;
8887;SDS011;4480;52.370;9.748;2023-02-03T07:08:00;8.75;;;7.03;;
8887;SDS011;4480;52.370;9.748;2023-02-03T07:10:27;12.00;;;8.45;;
8887;SDS011;4480;52.370;9.748;2023-02-03T07:12:54;11.60;;;8.10;;
8887;SDS011;4480;52.370;9.748;2023-02-03T07:15:26;11.20;;;7.50;;
8887;SDS011;4480;52.370;9.748;2023-02-03T07:17:53;11.32;;;8.63;;
8887;SDS011;4480;52.370;9.748;2023-02-03T07:20:21;10.30;;;8.32;;
8887;SDS011;4480;52.370;9.748;2023-02-03T07:22:52;11.73;;;8.50;;
8887;SDS011;4480;52.370;9.748;2023-02-03T07:25:20;13.50;;;8.43;;
8887;SDS011;4480;52.370;9.748;2023-02-03T07:27:47;10.70;;;8.45;;
8887;SDS011;4480;52.370;9.748;2023-02-03T07:30:14;12.95;;;8.55;;
8887;SDS011;4480;52.370;9.748;2023-02-03T07:32:45;9.75;;;7.40;;
8887;SDS011;4480;52.370;9.748;2023-02-03T07:35:12;13.63;;;8.35;;
8887;SDS011;4480;52.370;9.748;2023-02-03T07:37:41;10.63;;;7.20;;
8887;SDS011;4480;52.370;9.748;2023-02-03T07:40:08;8.85;;;7.50;;
8887;SDS011;4480;52.370;9.748;2023-02-03T07:42:37;8.45;;;6.80;;
8887;SDS011;4480;52.370;9.748;2023-02-03T07:45:06;8.68;;;6.97;;
8887;SDS011;4480;52.370;9.748;2023-02-03T07:47:34;9.60;;;8.00;;
8887;SDS011;4480;52.370;9.748;2023-02-03T07:50:00;10.68;;;7.40;;
8887;SDS011;4480;52.370;9.748;2023-02-03T07:52:27;9.32;;;8.00;;
8887;SDS011;4480;52.370;9.748;2023-02-03T07:54:55;11.40;;;7.40;;
8887;SDS011;4480;52.370;9.748;2023-02-03T07:57:22;9.38;;;7.30;;
8887;SDS011;4480;52.370;9.748;2023-02-03T07:59:49;8.65;;;7.05;;
8887;SDS011;4480;52.370;9.748;2023-02-03T08:02:16;9.60;;;7.60;;
8887;SDS011;4480;52.370;9.748;2023-02-03T08:04:43;8.25;;;7.00;;
8887;SDS011;4480;52.370;9.748;2023-02-03T08:07:10;8.20;;;7.30;;
8887;SDS011;4480;52.370;9.748;2023-02-03T08:09:37;8.68;;;6.85;;
8887;SDS011;4480;52.370;9.748;2023-02-03T08:12:05;8.87;;;7.30;;
8887;SDS011;4480;52.370;9.748;2023-02-03T08:14:32;9.63;;;6.97;;
8887;SDS011;4480;52.370;9.748;2023-02-03T08:16:58;11.35;;;6.95;;
8887;SDS011;4480;52.370;9.748;2023-02-03T08:19:25;8.13;;;6.32;;
8887;SDS011;4480;52.370;9.748;2023-02-03T08:21:52;7.82;;;6.50;;
8887;SDS011;4480;52.370;9.748;2023-02-03T08:24:19;8.52;;;6.85;;
8887;SDS011;4480;52.370;9.748;2023-02-03T08:26:46;9.65;;;7.07;;
8887;SDS011;4480;52.370;9.748;2023-02-03T08:29:14;9.52;;;6.53;;
8887;SDS011;4480;52.370;9.748;2023-02-03T08:31:41;9.98;;;6.10;;
8887;SDS011;4480;52.370;9.748;2023-02-03T08:34:08;9.38;;;6.75;;
8887;SDS011;4480;52.370;9.748;2023-02-03T08:36:34;9.07;;;6.97;;
8887;SDS011;4480;52.370;9.748;2023-02-03T08:39:04;11.13;;;5.88;;
8887;SDS011;4480;52.370;9.748;2023-02-03T08:41:30;8.90;;;6.85;;
8887;SDS011;4480;52.370;9.748;2023-02-03T08:43:58;10.90;;;6.65;;
8887;SDS011;4480;52.370;9.748;2023-02-03T08:46:26;8.63;;;6.10;;
8887;SDS011;4480;52.370;9.748;2023-02-03T08:48:53;7.90;;;6.20;;
8887;SDS011;4480;52.370;9.748;2023-02-03T08:51:21;9.82;;;5.97;;
8887;SDS011;4480;52.370;9.748;2023-02-03T08:53:48;9.40;;;6.00;;
8887;SDS011;4480;52.370;9.748;2023-02-03T08:56:15;8.95;;;7.28;;
8887;SDS011;4480;52.370;9.748;2023-02-03T08:58:43;10.48;;;6.90;;
8887;SDS011;4480;52.370;9.748;2023-02-03T09:01:10;10.90;;;6.80;;
8887;SDS011;4480;52.370;9.748;2023-02-03T09:03:40;9.23;;;7.50;;
8887;SDS011;4480;52.370;9.748;2023-02-03T09:06:07;13.25;;;7.97;;
8887;SDS011;4480;52.370;9.748;2023-02-03T09:08:37;9.20;;;7.00;;
8887;SDS011;4480;52.370;9.748;2023-02-03T09:11:07;9.45;;;7.25;;
8887;SDS011;4480;52.370;9.748;2023-02-03T09:13:34;9.27;;;7.00;;
8887;SDS011;4480;52.370;9.748;2023-02-03T09:16:01;8.33;;;5.83;;
8887;SDS011;4480;52.370;9.748;2023-02-03T09:18:28;8.95;;;6.18;;
8887;SDS011;4480;52.370;9.748;2023-02-03T09:21:00;10.52;;;6.05;;
8887;SDS011;4480;52.370;9.748;2023-02-03T09:23:27;8.93;;;5.70;;
8887;SDS011;4480;52.370;9.748;2023-02-03T09:25:54;11.35;;;5.90;;
8887;SDS011;4480;52.370;9.748;2023-02-03T09:28:21;7.45;;;5.30;;
8887;SDS011;4480;52.370;9.748;2023-02-03T09:30:47;11.05;;;6.03;;
8887;SDS011;4480;52.370;9.748;2023-02-03T09:33:14;9.00;;;5.70;;
8887;SDS011;4480;52.370;9.748;2023-02-03T09:35:41;7.38;;;5.80;;
8887;SDS011;4480;52.370;9.748;2023-02-03T09:38:09;9.73;;;5.25;;
8887;SDS011;4480;52.370;9.748;2023-02-03T09:40:36;9.80;;;5.32;;
8887;SDS011;4480;52.370;9.748;2023-02-03T09:43:07;8.83;;;5.10;;
8887;SDS011;4480;52.370;9.748;2023-02-03T09:45:42;10.73;;;5.30;;
8887;SDS011;4480;52.370;9.748;2023-02-03T09:48:10;12.02;;;5.68;;
8887;SDS011;4480;52.370;9.748;2023-02-03T09:50:41;9.88;;;4.97;;
8887;SDS011;4480;52.370;9.748;2023-02-03T09:53:14;7.90;;;5.10;;
8887;SDS011;4480;52.370;9.748;2023-02-03T09:55:48;8.73;;;5.00;;
8887;SDS011;4480;52.370;9.748;2023-02-03T09:58:16;6.60;;;5.38;;
8887;SDS011;4480;52.370;9.748;2023-02-03T10:00:47;8.93;;;5.22;;
8887;SDS011;4480;52.370;9.748;2023-02-03T10:03:19;11.55;;;5.07;;
8887;SDS011;4480;52.370;9.748;2023-02-03T10:06:00;9.18;;;5.50;;
8887;SDS011;4480;52.370;9.748;2023-02-03T10:08:45;9.65;;;4.82;;
8887;SDS011;4480;52.370;9.748;2023-02-03T10:11:34;11.38;;;4.75;;
8887;SDS011;4480;52.370;9.748;2023-02-03T10:14:30;10.83;;;4.40;;
8887;SDS011;4480;52.370;9.748;2023-02-03T10:17:12;8.98;;;4.07;;
8887;SDS011;4480;52.370;9.748;2023-02-03T10:19:56;10.88;;;3.90;;
8887;SDS011;4480;52.370;9.748;2023-02-03T10:22:28;9.57;;;3.40;;
8887;SDS011;4480;52.370;9.748;2023-02-03T10:24:59;9.65;;;3.35;;
8887;SDS011;4480;52.370;9.748;2023-02-03T10:27:31;11.50;;;3.22;;
8887;SDS011;4480;52.370;9.748;2023-02-03T10:30:02;7.60;;;3.63;;
8887;SDS011;4480;52.370;9.748;2023-02-03T10:32:31;13.15;;;3.63;;
8887;SDS011;4480;52.370;9.748;2023-02-03T10:35:00;7.65;;;3.30;;
8887;SDS011;4480;52.370;9.748;2023-02-03T10:37:28;9.10;;;3.70;;
8887;SDS011;4480;52.370;9.748;2023-02-03T10:39:56;8.88;;;3.22;;
8887;SDS011;4480;52.370;9.748;2023-02-03T10:42:26;9.07;;;3.25;;
8887;SDS011;4480;52.370;9.748;2023-02-03T10:45:15;9.63;;;3.50;;
8887;SDS011;4480;52.370;9.748;2023-02-03T10:47:43;7.60;;;3.20;;
8887;SDS011;4480;52.370;9.748;2023-02-03T10:50:14;9.60;;;3.00;;
8887;SDS011;4480;52.370;9.748;2023-02-03T10:52:42;9.27;;;3.25;;
8887;SDS011;4480;52.370;9.748;2023-02-03T10:55:27;8.93;;;3.40;;
8887;SDS011;4480;52.370;9.748;2023-02-03T10:57:56;7.40;;;2.47;;
8887;SDS011;4480;52.370;9.748;2023-02-03T11:00:27;9.50;;;2.70;;
8887;SDS011;4480;52.370;9.748;2023-02-03T11:02:55;7.03;;;2.80;;
8887;SDS011;4480;52.370;9.748;2023-02-03T11:05:31;5.80;;;2.95;;
8887;SDS011;4480;52.370;9.748;2023-02-03T11:07:58;5.80;;;2.42;;
8887;SDS011;4480;52.370;9.748;2023-02-03T11:10:28;7.90;;;2.60;;
8887;SDS011;4480;52.370;9.748;2023-02-03T11:13:14;9.35;;;3.25;;
8887;SDS011;4480;52.370;9.748;2023-02-03T11:15:51;8.45;;;3.10;;
8887;SDS011;4480;52.370;9.748;2023-02-03T11:18:24;8.80;;;3.10;;
8887;SDS011;4480;52.370;9.748;2023-02-03T11:20:55;6.13;;;3.08;;
8887;SDS011;4480;52.370;9.748;2023-02-03T11:23:22;7.28;;;3.00;;
8887;SDS011;4480;52.370;9.748;2023-02-03T11:25:51;12.13;;;3.42;;
8887;SDS011;4480;52.370;9.748;2023-02-03T11:28:17;8.10;;;3.00;;
8887;SDS011;4480;52.370;9.748;2023-02-03T11:30:46;9.73;;;3.30;;
8887;SDS011;4480;52.370;9.748;2023-02-03T11:33:20;10.80;;;3.50;;
8887;SDS011;4480;52.370;9.748;2023-02-03T11:35:52;14.00;;;3.45;;
8887;SDS011;4480;52.370;9.748;2023-02-03T11:38:28;9.20;;;3.30;;
8887;SDS011;4480;52.370;9.748;2023-02-03T11:41:01;8.02;;;3.20;;
8887;SDS011;4480;52.370;9.748;2023-02-03T11:43:28;8.25;;;3.10;;
8887;SDS011;4480;52.370;9.748;2023-02-03T11:45:58;6.10;;;2.53;;
8887;SDS011;4480;52.370;9.748;2023-02-03T11:48:29;13.82;;;3.60;;
8887;SDS011;4480;52.370;9.748;2023-02-03T11:51:02;10.15;;;3.22;;
8887;SDS011;4480;52.370;9.748;2023-02-03T11:53:42;10.10;;;3.50;;
8887;SDS011;4480;52.370;9.748;2023-02-03T11:56:27;11.07;;;3.90;;
8887;SDS011;4480;52.370;9.748;2023-02-03T11:59:08;12.00;;;3.55;;
8887;SDS011;4480;52.370;9.748;2023-02-03T12:01:51;10.50;;;3.40;;
8887;SDS011;4480;52.370;9.748;2023-02-03T12:04:36;15.48;;;3.50;;
8887;SDS011;4480;52.370;9.748;2023-02-03T12:07:31;14.02;;;3.80;;
8887;SDS011;4480;52.370;9.748;2023-02-03T12:10:12;13.30;;;4.17;;
8887;SDS011;4480;52.370;9.748;2023-02-03T12:12:53;9.73;;;3.60;;
8887;SDS011;4480;52.370;9.748;2023-02-03T12:15:33;17.90;;;3.90;;
8887;SDS011;4480;52.370;9.748;2023-02-03T12:18:24;14.52;;;3.78;;
8887;SDS011;4480;52.370;9.748;2023-02-03T12:21:04;14.63;;;4.00;;
8887;SDS011;4480;52.370;9.748;2023-02-03T12:23:45;13.15;;;3.58;;
8887;SDS011;4480;52.370;9.748;2023-02-03T12:26:21;13.20;;;3.38;;
8887;SDS011;4480;52.370;9.748;2023-02-03T12:28:55;13.75;;;3.78;;
8887;SDS011;4480;52.370;9.748;2023-02-03T12:31:29;12.18;;;3.95;;
8887;SDS011;4480;52.370;9.748;2023-02-03T12:34:03;10.85;;;3.30;;
8887;SDS011;4480;52.370;9.748;2023-02-03T12:36:38;15.82;;;4.55;;
8887;SDS011;4480;52.370;9.748;2023-02-03T12:39:10;10.63;;;3.38;;
8887;SDS011;4480;52.370;9.748;2023-02-03T12:41:44;15.13;;;4.63;;
8887;SDS011;4480;52.370;9.748;2023-02-03T12:44:18;12.80;;;3.40;;
8887;SDS011;4480;52.370;9.748;2023-02-03T12:46:49;17.17;;;3.70;;
8887;SDS011;4480;52.370;9.748;2023-02-03T12:49:27;11.32;;;3.72;;
8887;SDS011;4480;52.370;9.748;2023-02-03T12:52:00;9.33;;;3.00;;
8887;SDS011;4480;52.370;9.748;2023-02-03T12:54:33;9.88;;;3.20;;
8887;SDS011;4480;52.370;9.748;2023-02-03T12:57:09;12.87;;;3.40;;
8887;SDS011;4480;52.370;9.748;2023-02-03T12:59:45;11.35;;;3.75;;
8887;SDS011;4480;52.370;9.748;2023-02-03T13:02:36;13.48;;;3.60;;
8887;SDS011;4480;52.370;9.748;2023-02-03T13:05:14;16.13;;;3.45;;
8887;SDS011;4480;52.370;9.748;2023-02-03T13:07:47;11.18;;;3.40;;
8887;SDS011;4480;52.370;9.748;2023-02-03T13:10:20;12.87;;;3.43;;
8887;SDS011;4480;52.370;9.748;2023-02-03T13:12:52;12.82;;;3.45;;
8887;SDS011;4480;52.370;9.748;2023-02-03T13:15:23;14.23;;;4.20;;
8887;SDS011;4480;52.370;9.748;2023-02-03T13:17:56;12.75;;;4.10;;
8887;SDS011;4480;52.370;9.748;2023-02-03T13:20:27;11.70;;;3.60;;
8887;SDS011;4480;52.370;9.748;2023-02-03T13:22:55;12.70;;;3.58;;
8887;SDS011;4480;52.370;9.748;2023-02-03T13:25:23;18.20;;;3.40;;
8887;SDS011;4480;52.370;9.748;2023-02-03T13:27:58;12.25;;;3.83;;
8887;SDS011;4480;52.370;9.748;2023-02-03T13:30:39;12.13;;;3.40;;
8887;SDS011;4480;52.370;9.748;2023-02-03T13:36:32;14.88;;;4.93;;
8887;SDS011;4480;52.370;9.748;2023-02-03T13:39:19;10.97;;;3.20;;
8887;SDS011;4480;52.370;9.748;2023-02-03T13:42:07;14.63;;;4.10;;
8887;SDS011;4480;52.370;9.748;2023-02-03T13:44:42;15.07;;;3.90;;
8887;SDS011;4480;52.370;9.748;2023-02-03T13:47:15;13.30;;;3.65;;
8887;SDS011;4480;52.370;9.748;2023-02-03T13:49:45;13.27;;;3.42;;
8887;SDS011;4480;52.370;9.748;2023-02-03T13:52:27;10.43;;;3.15;;
8887;SDS011;4480;52.370;9.748;2023-02-03T13:54:59;12.30;;;3.22;;
8887;SDS011;4480;52.370;9.748;2023-02-03T13:57:28;12.20;;;2.90;;
8887;SDS011;4480;52.370;9.748;2023-02-03T13:59:59;13.82;;;2.90;;
8887;SDS011;4480;52.370;9.748;2023-02-03T14:02:41;10.35;;;3.15;;
8887;SDS011;4480;52.370;9.748;2023-02-03T14:17:00;9.35;;;2.70;;
8887;SDS011;4480;52.370;9.748;2023-02-03T14:22:20;10.30;;;3.33;;
8887;SDS011;4480;52.370;9.748;2023-02-03T14:24:47;13.35;;;3.22;;
8887;SDS011;4480;52.370;9.748;2023-02-03T14:27:16;15.40;;;3.00;;
8887;SDS011;4480;52.370;9.748;2023-02-03T14:29:45;15.70;;;4.30;;
8887;SDS011;4480;52.370;9.748;2023-02-03T14:32:33;11.75;;;3.22;;
8887;SDS011;4480;52.370;9.748;2023-02-03T14:35:15;11.82;;;3.95;;
8887;SDS011;4480;52.370;9.748;2023-02-03T14:37:49;12.05;;;3.70;;
8887;SDS011;4480;52.370;9.748;2023-02-03T14:40:28;15.00;;;3.40;;
8887;SDS011;4480;52.370;9.748;2023-02-03T14:43:06;9.88;;;4.00;;
8887;SDS011;4480;52.370;9.748;2023-02-03T14:49:01;11.65;;;4.10;;
8887;SDS011;4480;52.370;9.748;2023-02-03T14:51:59;13.93;;;3.65;;
8887;SDS011;4480;52.370;9.748;2023-02-03T14:57:28;12.13;;;3.70;;
8887;SDS011;4480;52.370;9.748;2023-02-03T15:00:04;12.75;;;3.33;;
8887;SDS011;4480;52.370;9.748;2023-02-03T15:02:35;13.32;;;3.40;;
8887;SDS011;4480;52.370;9.748;2023-02-03T15:05:35;15.65;;;3.70;;
8887;SDS011;4480;52.370;9.748;2023-02-03T15:08:24;10.70;;;3.63;;
8887;SDS011;4480;52.370;9.748;2023-02-03T15:11:13;11.63;;;3.50;;
8887;SDS011;4480;52.370;9.748;2023-02-03T15:13:42;14.23;;;3.70;;
8887;SDS011;4480;52.370;9.748;2023-02-03T15:16:11;8.50;;;2.90;;
8887;SDS011;4480;52.370;9.748;2023-02-03T15:18:40;12.07;;;3.05;;
8887;SDS011;4480;52.370;9.748;2023-02-03T15:21:12;10.98;;;3.20;;
8887;SDS011;4480;52.370;9.748;2023-02-03T15:23:43;13.50;;;3.90;;
8887;SDS011;4480;52.370;9.748;2023-02-03T15:26:13;15.27;;;3.70;;
8887;SDS011;4480;52.370;9.748;2023-02-03T15:28:43;13.70;;;3.83;;
8887;SDS011;4480;52.370;9.748;2023-02-03T15:31:19;14.38;;;3.50;;
8887;SDS011;4480;52.370;9.748;2023-02-03T15:33:50;15.25;;;4.45;;
8887;SDS011;4480;52.370;9.748;2023-02-03T15:36:20;11.03;;;2.80;;
8887;SDS011;4480;52.370;9.748;2023-02-03T15:38:53;13.50;;;3.70;;
8887;SDS011;4480;52.370;9.748;2023-02-03T15:41:25;15.90;;;4.50;;
8887;SDS011;4480;52.370;9.748;2023-02-03T15:43:52;13.68;;;4.22;;
8887;SDS011;4480;52.370;9.748;2023-02-03T15:46:22;14.05;;;3.88;;
8887;SDS011;4480;52.370;9.748;2023-02-03T15:48:56;18.30;;;3.90;;
8887;SDS011;4480;52.370;9.748;2023-02-03T15:51:27;15.50;;;4.35;;